Whitman, NE (69366)

4:37 PM MDT on June 02, 2015 (GMT -0600)
Thedford | | Change Station
CLOSE
Current Station
Airport
Location: Thedford,
Elevation: 2927 ft
Nearby Weather Stations
Active Advisory: Severe Thunderstorm Watch

Elev 2927 ft 41.96 °N, 100.57 °W | Updated 22 minutes ago

Clear
Clear
86 °F
Feels Like 88 °F
N
12
Wind Variable Wind from South
Gusts 18 mph

Today
High -- | Low -- °F
--% Chance of Precip.
Yesterday
High -- | Low -- °F
Precip. -- in
5:13 AM 8:15 PM
Full, 100% visible
Pressure 29.81 in
Visibility 10.0 miles
Clouds Scattered Clouds 4700 ft
Scattered Clouds 5000 ft
Heat Index 88 °F
Dew Point 66 °F
Humidity 50%
Rainfall 0.00 in
Snow Depth Not available.
UV 5 out of 12
Pollen 8.10 out of 12
Air Quality Not available.
Flu Activity No Activity
METAR KTIF 022215Z AUTO 17010G16KT 10SM SCT047 SCT050 30/19 A2981 RMK AO2 T03010187

More Conditions Fewer Conditions

Pressure 29.81 in
Visibility 10.0 miles
Clouds Scattered Clouds 4700 ft
Scattered Clouds 5000 ft
Heat Index 88 °F
Dew Point 66 °F
Humidity 50%
Rainfall 0.00 in
Snow Depth Not available.
UV 5 out of 12
Pollen 8.10 out of 12
Air Quality Not available.
Flu Activity No Activity
METAR KTIF 022215Z AUTO 17010G16KT 10SM SCT047 SCT050 30/19 A2981 RMK AO2 T03010187

More Conditions Fewer Conditions

10-Day Weather Forecast

×

Almanac

Astronomy

Jun. 02, 2015 Rise Set
Actual Time
Civil Twilight
Nautical Twilight
Astronomical Twilight
Moon
Length of Visible Light
Length of Day
Tomorrow will be .
, % of the Moon is Illuminated

Today's Extremes

State Highs State Lows

Community

WunderPhotos

Upload Photos

1,826,049 photos uploaded!

WunderBlogs® & News

Nearby

Air Quality

  Air Quality AQ Index Pollutant
Not available.

Snow Depth

Station Depth Elevation

Earthquake Activity

City Distance Mag. Time & Date
Minimum magnitude displayed is 2.5.

Coastal Water Temperatures

Place Temperature

Stations

Nearby Weather Stations

Station Location Temp. Windchill Dew Point Humidity Wind Precip. Elev Updated Type
                   
Severe Thunderstorm Watch
Statement as of 4:24 PM MDT on June 02, 2015

Severe Thunderstorm Watch 248 remains in effect until 1000 PM MDT
for the following locations


NE
. Nebraska counties included are

Arthur Banner Box Butte
Cherry Dawes garden
Grant Hooker Morrill
Scotts Bluff Sheridan Sioux